Time;durP1;ratioP1;P1;durP2;ratioP2;P2;SDS_P1;SDS_P2;PMS_P1;PMS_P2;Temp;Humidity;BMP_temperature;BMP_pressure;BME280_temperature;BME280_humidity;BME280_pressure;Samples;Min_cycle;Max_cycle;Signal;HPM_P1;HPM_P2
2023/11/30 00:00:22;;;;;;;35.75;16.48;;;;;;;-1.13;100.00;99999.06;5001657;28;21922;-72
2023/11/30 00:02:48;;;;;;;38.58;17.10;;;;;;;-1.10;100.00;99993.75;5001859;28;20038;-73
2023/11/30 00:05:13;;;;;;;36.45;17.83;;;;;;;-1.13;100.00;99990.56;5001594;28;20052;-73
2023/11/30 00:07:39;;;;;;;37.35;17.23;;;;;;;-1.12;100.00;99985.41;5005310;28;20515;-73
2023/11/30 00:10:05;;;;;;;32.38;16.40;;;;;;;-1.16;100.00;99990.81;5002247;28;20038;-73
2023/11/30 00:12:30;;;;;;;32.63;15.32;;;;;;;-1.18;100.00;99991.69;5005655;28;20037;-73
2023/11/30 00:14:56;;;;;;;34.72;16.30;;;;;;;-1.16;100.00;99994.16;5003772;28;20042;-73
2023/11/30 00:17:21;;;;;;;40.78;17.52;;;;;;;-1.11;100.00;99988.75;5009793;28;20034;-74
2023/11/30 00:19:47;;;;;;;36.75;16.60;;;;;;;-1.11;100.00;99978.56;5003508;28;20053;-72
2023/11/30 00:22:12;;;;;;;40.50;17.77;;;;;;;-1.09;100.00;99971.66;5017064;28;20034;-73
2023/11/30 00:24:37;;;;;;;38.03;18.02;;;;;;;-1.08;100.00;99971.53;5006665;28;20034;-73
2023/11/30 00:27:04;;;;;;;36.95;17.58;;;;;;;-1.07;100.00;99978.28;5003971;28;20021;-73
2023/11/30 00:29:29;;;;;;;40.13;16.42;;;;;;;-1.09;100.00;99972.47;5005030;28;20030;-73
2023/11/30 00:31:54;;;;;;;35.35;15.75;;;;;;;-1.11;100.00;99970.94;5010102;28;20472;-73
2023/11/30 00:34:20;;;;;;;40.08;17.25;;;;;;;-1.11;100.00;99976.03;5008533;28;20041;-73
2023/11/30 00:36:45;;;;;;;30.88;16.48;;;;;;;-1.13;100.00;99982.94;5015599;28;20029;-73
2023/11/30 00:39:11;;;;;;;34.58;18.10;;;;;;;-1.13;100.00;99976.16;5015632;28;20038;-73
2023/11/30 00:41:37;;;;;;;38.88;17.38;;;;;;;-1.13;100.00;99973.59;5006346;28;20103;-73
2023/11/30 00:44:03;;;;;;;38.63;17.35;;;;;;;-1.13;100.00;99978.69;5004718;28;20485;-73
2023/11/30 00:46:28;;;;;;;31.35;16.90;;;;;;;-1.12;100.00;99979.50;5007187;28;20523;-73
2023/11/30 00:48:54;;;;;;;36.00;16.20;;;;;;;-1.11;100.00;99976.03;5014115;28;20026;-73
2023/11/30 00:51:19;;;;;;;38.60;17.23;;;;;;;-1.09;100.00;99976.72;5012769;28;20038;-73
2023/11/30 00:53:45;;;;;;;34.60;16.35;;;;;;;-1.10;100.00;99975.13;5010197;28;20038;-73
2023/11/30 00:56:11;;;;;;;30.60;15.63;;;;;;;-1.12;100.00;99972.66;4991750;28;20045;-74
2023/11/30 00:58:37;;;;;;;33.72;16.95;;;;;;;-1.12;100.00;99972.66;5007439;28;20061;-73
2023/11/30 01:01:03;;;;;;;40.22;16.63;;;;;;;-1.11;100.00;99969.22;5007686;28;20386;-73
2023/11/30 01:03:29;;;;;;;32.88;16.30;;;;;;;-1.11;100.00;99964.13;5006260;28;20040;-73
2023/11/30 01:05:54;;;;;;;37.42;19.15;;;;;;;-1.04;100.00;99959.44;5006340;28;20096;-73
2023/11/30 01:08:20;;;;;;;35.88;18.80;;;;;;;-1.00;100.00;99955.78;5006578;28;20040;-73
2023/11/30 01:10:46;;;;;;;43.92;20.63;;;;;;;-0.94;100.00;99949.47;5005999;28;20378;-73
2023/11/30 01:13:12;;;;;;;39.38;18.75;;;;;;;-0.96;100.00;99952.13;5005406;28;20041;-73
2023/11/30 01:15:37;;;;;;;39.60;19.30;;;;;;;-1.00;100.00;99956.59;5006365;28;20038;-74
2023/11/30 01:18:03;;;;;;;37.28;18.48;;;;;;;-1.04;100.00;99950.06;4991218;28;20538;-74
2023/11/30 01:20:29;;;;;;;36.78;18.25;;;;;;;-1.10;100.00;99944.59;5009448;28;21870;-74
2023/11/30 01:22:55;;;;;;;42.08;18.83;;;;;;;-1.13;100.00;99949.88;5012963;28;20040;-74
2023/11/30 01:25:21;;;;;;;46.85;20.60;;;;;;;-1.11;100.00;99951.41;5007063;28;20038;-74
2023/11/30 01:27:47;;;;;;;49.53;21.13;;;;;;;-1.12;100.00;99941.34;5007856;28;21463;-75
2023/11/30 01:30:13;;;;;;;47.58;21.55;;;;;;;-1.12;100.00;99936.25;5011542;28;20062;-74
2023/11/30 01:32:38;;;;;;;45.35;21.23;;;;;;;-1.14;100.00;99936.34;5012305;28;20108;-74
2023/11/30 01:35:04;;;;;;;45.05;21.05;;;;;;;-1.13;100.00;99942.22;5013509;28;20104;-74
2023/11/30 01:37:30;;;;;;;48.72;21.27;;;;;;;-1.12;100.00;99929.41;5011201;28;20080;-74
2023/11/30 01:39:56;;;;;;;41.58;18.60;;;;;;;-1.11;100.00;99931.06;5010536;28;20050;-74
2023/11/30 01:42:22;;;;;;;47.92;21.75;;;;;;;-1.12;100.00;99923.50;5011224;28;20030;-74
2023/11/30 01:44:47;;;;;;;49.72;20.90;;;;;;;-1.04;100.00;99926.34;5011531;28;20404;-74
2023/11/30 01:47:15;;;;;;;41.25;20.77;;;;;;;-1.00;100.00;99922.69;5007752;28;20026;-75
2023/11/30 01:49:41;;;;;;;40.38;20.60;;;;;;;-1.05;100.00;99930.63;5006388;28;20017;-75
2023/11/30 01:52:07;;;;;;;39.78;20.25;;;;;;;-0.94;100.00;99927.38;5018270;28;20049;-74
2023/11/30 01:54:33;;;;;;;43.67;20.20;;;;;;;-1.01;100.00;99928.72;5009060;28;20060;-74
2023/11/30 01:57:00;;;;;;;45.53;20.83;;;;;;;-1.04;100.00;99929.72;5008473;28;20025;-74
2023/11/30 01:59:26;;;;;;;39.00;19.63;;;;;;;-1.09;100.00;99918.19;5004277;28;20643;-74
2023/11/30 02:01:52;;;;;;;36.83;17.77;;;;;;;-1.11;100.00;99927.66;5014109;28;20041;-74
2023/11/30 02:04:20;;;;;;;39.25;18.33;;;;;;;-1.13;100.00;99927.81;5011672;28;20042;-74
2023/11/30 02:06:46;;;;;;;39.72;19.45;;;;;;;-1.09;100.00;99926.69;5011882;28;20041;-74
2023/11/30 02:09:12;;;;;;;38.05;18.88;;;;;;;-1.08;100.00;99914.75;5011905;28;20048;-75
2023/11/30 02:11:38;;;;;;;39.85;20.08;;;;;;;-1.12;100.00;99916.69;5012784;28;20050;-74
2023/11/30 02:14:05;;;;;;;41.53;20.25;;;;;;;-1.15;100.00;99919.44;5014972;28;20034;-74
2023/11/30 02:16:30;;;;;;;61.22;21.45;;;;;;;-1.13;100.00;99914.25;5008456;28;20030;-75
2023/11/30 02:22:19;;;;;;;43.67;19.53;;;;;;;-1.09;100.00;99911.41;5005690;28;20033;-74
2023/11/30 02:24:46;;;;;;;39.78;20.60;;;;;;;-1.02;100.00;99910.09;5012457;28;20076;-74
2023/11/30 02:27:11;;;;;;;46.83;22.08;;;;;;;-0.99;100.00;99903.97;5011193;28;20030;-74
2023/11/30 02:29:37;;;;;;;43.60;21.15;;;;;;;-0.98;100.00;99903.03;5008470;28;20037;-74
2023/11/30 02:32:03;;;;;;;43.42;20.63;;;;;;;-1.03;100.00;99887.28;5010632;28;20038;-74
2023/11/30 02:34:29;;;;;;;47.08;20.83;;;;;;;-1.02;100.00;99884.63;5008247;28;20531;-74
2023/11/30 02:36:54;;;;;;;37.70;19.63;;;;;;;-1.06;100.00;99897.66;5009269;28;20040;-75
2023/11/30 02:39:20;;;;;;;37.42;19.45;;;;;;;-1.09;100.00;99895.31;5006634;28;20045;-74
2023/11/30 02:41:45;;;;;;;47.67;21.92;;;;;;;-0.93;100.00;99888.28;5010735;28;20060;-74
2023/11/30 02:44:11;;;;;;;50.38;22.20;;;;;;;-0.84;100.00;99891.94;5009462;28;20032;-74
2023/11/30 02:46:36;;;;;;;44.47;21.73;;;;;;;-0.83;100.00;99885.91;5008130;28;20045;-74
2023/11/30 02:49:02;;;;;;;45.88;22.63;;;;;;;-0.79;100.00;99889.91;4998798;28;20542;-74
2023/11/30 02:51:27;;;;;;;44.95;22.00;;;;;;;-0.74;100.00;99885.28;5011726;28;20033;-74
2023/11/30 02:53:53;;;;;;;42.40;21.15;;;;;;;-0.72;100.00;99880.88;5009075;28;20046;-74
2023/11/30 02:56:18;;;;;;;44.45;22.13;;;;;;;-0.71;100.00;99890.16;4987037;28;20031;-74
2023/11/30 02:58:44;;;;;;;47.90;21.95;;;;;;;-0.76;100.00;99888.84;5016164;28;20061;-74
2023/11/30 03:01:09;;;;;;;43.45;20.77;;;;;;;-0.85;100.00;99888.56;5008776;28;20061;-74
2023/11/30 03:03:35;;;;;;;45.10;21.30;;;;;;;-0.88;100.00;99885.44;4992404;28;20029;-75
2023/11/30 03:06:00;;;;;;;44.38;21.98;;;;;;;-0.90;100.00;99887.25;5011619;28;21492;-74
2023/11/30 03:08:25;;;;;;;46.65;21.05;;;;;;;-0.79;100.00;99888.16;5015918;28;20392;-74
2023/11/30 03:10:51;;;;;;;47.70;21.98;;;;;;;-0.79;100.00;99884.81;5008941;28;20037;-74
2023/11/30 03:13:18;;;;;;;44.75;21.17;;;;;;;-0.86;100.00;99886.94;5009446;28;20040;-75
2023/11/30 03:15:45;;;;;;;49.38;22.55;;;;;;;-0.88;100.00;99886.22;5007199;28;20026;-74
2023/11/30 03:18:10;;;;;;;42.38;21.90;;;;;;;-0.81;100.00;99884.91;5010129;28;20627;-73
2023/11/30 03:20:36;;;;;;;48.33;22.05;;;;;;;-0.77;100.00;99882.13;5008300;28;20045;-74
2023/11/30 03:23:02;;;;;;;44.97;21.30;;;;;;;-0.62;100.00;99876.81;5006698;28;20029;-74
2023/11/30 03:25:28;;;;;;;43.50;23.02;;;;;;;-0.67;100.00;99873.75;5008603;28;20038;-74
2023/11/30 03:27:53;;;;;;;46.10;21.27;;;;;;;-0.68;100.00;99873.84;5007235;28;20033;-75
2023/11/30 03:30:19;;;;;;;48.83;21.85;;;;;;;-0.62;100.00;99870.91;5008884;28;20041;-74
2023/11/30 03:32:44;;;;;;;42.58;21.08;;;;;;;-0.62;100.00;99881.09;4991399;28;20077;-74
2023/11/30 03:35:10;;;;;;;42.25;20.08;;;;;;;-0.65;100.00;99878.75;5007244;28;20053;-75
2023/11/30 03:37:40;;;;;;;38.22;19.92;;;;;;;-0.59;100.00;99871.47;5008360;28;20033;-74
2023/11/30 03:40:06;;;;;;;40.17;19.33;;;;;;;-0.63;100.00;99871.81;5012581;28;20627;-74
2023/11/30 03:42:32;;;;;;;43.78;21.02;;;;;;;-0.52;100.00;99869.31;5008211;28;20045;-74
2023/11/30 03:44:57;;;;;;;43.67;21.10;;;;;;;-0.52;100.00;99874.44;5013913;28;20524;-74
2023/11/30 03:47:22;;;;;;;38.45;19.65;;;;;;;-0.51;100.00;99870.97;5009434;28;20030;-74
2023/11/30 03:49:48;;;;;;;37.10;19.17;;;;;;;-0.58;100.00;99872.31;5006436;28;20408;-73
2023/11/30 03:52:13;;;;;;;44.42;20.70;;;;;;;-0.59;100.00;99876.56;5010166;28;20042;-73
2023/11/30 03:54:39;;;;;;;35.80;19.60;;;;;;;-0.53;100.00;99860.03;5011230;28;20037;-73
2023/11/30 03:57:04;;;;;;;41.25;20.50;;;;;;;-0.58;100.00;99864.66;5005907;28;20046;-73
2023/11/30 03:59:31;;;;;;;45.67;20.90;;;;;;;-0.42;100.00;99856.75;5007830;28;20042;-72
2023/11/30 04:01:56;;;;;;;50.08;20.17;;;;;;;-0.35;100.00;99857.97;5006579;28;20048;-73
2023/11/30 04:04:22;;;;;;;40.47;20.00;;;;;;;-0.48;100.00;99858.00;5010852;28;20432;-73
2023/11/30 04:06:47;;;;;;;41.17;19.40;;;;;;;-0.48;100.00;99860.53;4990691;28;20046;-73
2023/11/30 04:09:14;;;;;;;40.50;19.63;;;;;;;-0.53;100.00;99857.50;5014209;28;20026;-74
2023/11/30 04:11:39;;;;;;;38.95;19.45;;;;;;;-0.51;100.00;99870.13;5012358;28;20033;-74
2023/11/30 04:14:06;;;;;;;43.17;19.00;;;;;;;-0.48;100.00;99860.53;5011484;28;20265;-74
2023/11/30 04:16:32;;;;;;;36.38;18.35;;;;;;;-0.57;100.00;99855.28;5009661;28;20034;-73
2023/11/30 04:18:58;;;;;;;37.78;19.40;;;;;;;-0.58;100.00;99851.94;5014525;28;20057;-74
2023/11/30 04:21:23;;;;;;;42.28;21.00;;;;;;;-0.57;100.00;99862.94;5012420;28;20045;-73
2023/11/30 04:23:49;;;;;;;47.92;20.50;;;;;;;-0.60;100.00;99853.78;5015820;28;20053;-73
2023/11/30 04:26:14;;;;;;;38.72;18.75;;;;;;;-0.58;100.00;99859.59;5010646;28;20026;-74
2023/11/30 04:28:40;;;;;;;37.90;18.92;;;;;;;-0.48;100.00;99854.66;5010119;28;20042;-74
2023/11/30 04:31:06;;;;;;;47.85;20.17;;;;;;;-0.44;100.00;99849.22;5011210;28;20104;-74
2023/11/30 04:33:31;;;;;;;43.95;19.08;;;;;;;-0.51;100.00;99850.59;5012190;28;20029;-73
2023/11/30 04:35:56;;;;;;;46.92;20.40;;;;;;;-0.48;100.00;99859.75;5009282;28;20037;-73
2023/11/30 04:38:22;;;;;;;43.38;19.55;;;;;;;-0.51;100.00;99853.13;5010175;28;20404;-73
2023/11/30 04:40:47;;;;;;;37.05;19.50;;;;;;;-0.52;100.00;99856.59;5008598;28;20042;-73
2023/11/30 04:43:13;;;;;;;38.83;19.77;;;;;;;-0.58;100.00;99859.59;5015347;28;20034;-73
2023/11/30 04:45:38;;;;;;;41.60;19.75;;;;;;;-0.64;100.00;99858.28;5006752;28;20034;-73
2023/11/30 04:48:04;;;;;;;36.30;17.95;;;;;;;-0.69;100.00;99850.13;5012313;28;20551;-73
2023/11/30 04:50:30;;;;;;;36.75;17.35;;;;;;;-0.72;100.00;99850.34;5011383;28;20037;-73
2023/11/30 04:52:55;;;;;;;40.45;18.23;;;;;;;-0.74;100.00;99843.72;5010378;28;20038;-73
2023/11/30 04:55:21;;;;;;;37.42;18.88;;;;;;;-0.75;100.00;99845.47;5008138;28;20042;-73
2023/11/30 04:57:48;;;;;;;43.63;20.33;;;;;;;-0.72;100.00;99837.59;5009063;28;20030;-73
2023/11/30 05:00:14;;;;;;;38.13;18.27;;;;;;;-0.65;100.00;99843.09;5012060;28;20053;-73
2023/11/30 05:02:50;;;;;;;42.65;19.35;;;;;;;-0.49;100.00;99835.19;5026488;28;20033;-73
2023/11/30 05:05:16;;;;;;;33.47;18.02;;;;;;;-0.61;100.00;99832.56;5028110;28;20037;-73
2023/11/30 05:07:42;;;;;;;38.50;18.98;;;;;;;-0.55;100.00;99835.63;5012729;28;20542;-74
2023/11/30 05:10:07;;;;;;;47.53;20.90;;;;;;;-0.59;100.00;99843.47;5009616;28;20045;-74
2023/11/30 05:12:32;;;;;;;37.45;21.02;;;;;;;-0.55;100.00;99838.16;5010966;28;20038;-73
2023/11/30 05:14:58;;;;;;;39.28;20.65;;;;;;;-0.63;100.00;99842.06;5017441;28;20042;-73
2023/11/30 05:17:23;;;;;;;39.35;22.20;;;;;;;-0.65;100.00;99836.25;5012938;28;20064;-74
2023/11/30 05:19:49;;;;;;;41.20;20.23;;;;;;;-0.69;100.00;99841.69;5014882;28;20053;-73
2023/11/30 05:22:14;;;;;;;37.42;21.02;;;;;;;-0.54;100.00;99847.44;5010793;28;20041;-73
2023/11/30 05:24:40;;;;;;;48.47;20.70;;;;;;;-0.61;100.00;99842.75;5006116;28;20033;-74
2023/11/30 05:27:05;;;;;;;43.38;19.67;;;;;;;-0.50;100.00;99842.00;5008609;28;20041;-74
2023/11/30 05:29:30;;;;;;;42.78;20.85;;;;;;;-0.51;100.00;99832.75;5008688;28;20029;-74
2023/11/30 05:31:56;;;;;;;41.13;21.05;;;;;;;-0.45;100.00;99839.16;5013027;28;20034;-73
2023/11/30 05:34:21;;;;;;;41.50;21.83;;;;;;;-0.52;100.00;99823.47;5009121;28;20595;-74
2023/11/30 05:36:47;;;;;;;43.72;19.40;;;;;;;-0.48;100.00;99824.09;5011187;28;20049;-73
2023/11/30 05:39:15;;;;;;;46.08;20.60;;;;;;;-0.31;100.00;99831.34;5009831;28;20053;-73
2023/11/30 05:41:40;;;;;;;40.22;19.83;;;;;;;-0.37;100.00;99824.13;4994566;28;20042;-73
2023/11/30 05:44:06;;;;;;;37.42;20.40;;;;;;;-0.47;100.00;99820.59;5011017;28;20040;-73
2023/11/30 05:46:31;;;;;;;40.60;21.00;;;;;;;-0.57;100.00;99820.44;5016068;28;20056;-73
2023/11/30 05:48:57;;;;;;;41.40;19.95;;;;;;;-0.52;100.00;99817.59;4994146;28;20452;-73
2023/11/30 05:51:22;;;;;;;43.35;21.88;;;;;;;-0.54;100.00;99815.13;5012327;28;20034;-74
2023/11/30 05:53:48;;;;;;;43.17;21.27;;;;;;;-0.59;100.00;99818.00;5010021;28;20034;-74
2023/11/30 05:56:13;;;;;;;42.47;20.83;;;;;;;-0.60;100.00;99818.94;5012292;28;20065;-73
2023/11/30 05:58:39;;;;;;;43.58;22.00;;;;;;;-0.62;100.00;99819.97;5011438;28;20037;-73
2023/11/30 06:01:04;;;;;;;44.92;22.20;;;;;;;-0.64;100.00;99819.25;5010328;28;20026;-73
2023/11/30 06:03:30;;;;;;;41.88;22.10;;;;;;;-0.65;100.00;99825.28;4991383;28;20485;-75
2023/11/30 06:05:55;;;;;;;42.80;21.00;;;;;;;-0.68;100.00;99826.31;5011624;28;20041;-74
2023/11/30 06:08:21;;;;;;;42.35;20.70;;;;;;;-0.69;100.00;99823.88;5009828;28;20480;-73
2023/11/30 06:10:46;;;;;;;44.30;21.67;;;;;;;-0.61;100.00;99829.22;5006176;28;20049;-74
2023/11/30 06:13:14;;;;;;;44.20;21.42;;;;;;;-0.65;100.00;99825.28;5009030;28;20025;-73
2023/11/30 06:15:40;;;;;;;44.47;21.40;;;;;;;-0.69;100.00;99832.31;5007779;28;20386;-73
2023/11/30 06:18:05;;;;;;;43.60;20.48;;;;;;;-0.56;100.00;99828.91;5008091;28;20045;-73
2023/11/30 06:20:31;;;;;;;43.45;21.05;;;;;;;-0.54;100.00;99827.88;5013972;28;20034;-73
2023/11/30 06:22:56;;;;;;;38.33;19.08;;;;;;;-0.63;100.00;99831.88;5009056;28;20025;-74
2023/11/30 06:25:22;;;;;;;40.08;20.25;;;;;;;-0.66;100.00;99827.00;5013453;28;20509;-73
2023/11/30 06:27:47;;;;;;;40.13;19.95;;;;;;;-0.57;100.00;99828.09;4998157;28;20025;-74
2023/11/30 06:30:13;;;;;;;43.50;21.73;;;;;;;-0.63;100.00;99831.88;5012572;28;20087;-73
2023/11/30 06:32:38;;;;;;;41.20;18.85;;;;;;;-0.65;100.00;99831.16;5004358;28;20032;-73
2023/11/30 06:35:05;;;;;;;41.65;19.58;;;;;;;-0.67;100.00;99827.13;5005612;28;20675;-73
2023/11/30 06:37:30;;;;;;;41.10;21.17;;;;;;;-0.65;100.00;99831.16;5011776;28;20060;-74
2023/11/30 06:39:56;;;;;;;42.58;21.35;;;;;;;-0.63;100.00;99831.06;5005878;28;20558;-73
2023/11/30 06:42:21;;;;;;;40.33;21.13;;;;;;;-0.64;100.00;99825.16;5009569;28;20092;-72
2023/11/30 06:44:47;;;;;;;47.35;22.73;;;;;;;-0.61;100.00;99837.66;5010875;28;20030;-74
2023/11/30 06:47:13;;;;;;;45.55;22.23;;;;;;;-0.62;100.00;99830.97;5012995;28;20029;-73
2023/11/30 06:49:39;;;;;;;54.33;24.85;;;;;;;-0.47;100.00;99838.44;5005795;28;20501;-73
2023/11/30 06:52:04;;;;;;;42.55;21.05;;;;;;;-0.60;100.00;99834.22;5004232;28;20034;-74
2023/11/30 06:54:30;;;;;;;42.60;20.42;;;;;;;-0.60;100.00;99835.97;5010914;28;20041;-73
2023/11/30 06:56:56;;;;;;;42.33;19.17;;;;;;;-0.64;100.00;99843.00;5007591;28;20029;-74
2023/11/30 06:59:21;;;;;;;40.35;20.83;;;;;;;-0.66;100.00;99838.91;5014422;28;20034;-73
2023/11/30 07:01:48;;;;;;;38.65;19.58;;;;;;;-0.62;100.00;99843.69;5007564;28;20517;-73
2023/11/30 07:04:14;;;;;;;43.42;20.73;;;;;;;-0.53;100.00;99838.88;5008303;28;20416;-74
2023/11/30 07:06:40;;;;;;;45.90;20.48;;;;;;;-0.60;100.00;99836.75;5010947;28;20038;-74
2023/11/30 07:09:05;;;;;;;51.58;21.35;;;;;;;-0.39;100.00;99836.16;5009570;28;20025;-73
2023/11/30 07:11:31;;;;;;;44.50;21.25;;;;;;;-0.47;100.00;99834.16;5006305;28;20034;-73
2023/11/30 07:13:57;;;;;;;42.70;20.38;;;;;;;-0.41;100.00;99831.19;4993292;28;20550;-73
2023/11/30 07:16:22;;;;;;;41.72;20.00;;;;;;;-0.40;100.00;99829.44;5013036;28;20061;-73
2023/11/30 07:18:48;;;;;;;76.60;32.70;;;;;;;-0.45;100.00;99824.69;5009424;28;20116;-74
2023/11/30 07:21:14;;;;;;;68.78;29.30;;;;;;;-0.40;100.00;99826.88;5005872;28;20125;-74
2023/11/30 07:23:41;;;;;;;83.53;31.50;;;;;;;-0.40;100.00;99820.09;4990407;28;20033;-74
2023/11/30 07:26:13;;;;;;;52.95;23.80;;;;;;;-0.43;100.00;99820.28;5008055;28;20052;-74
2023/11/30 07:28:39;;;;;;;47.78;21.42;;;;;;;-0.33;100.00;99817.88;5009340;28;20053;-74
2023/11/30 07:31:05;;;;;;;45.45;20.50;;;;;;;-0.35;100.00;99816.38;5005490;28;20057;-74
2023/11/30 07:33:30;;;;;;;42.65;20.55;;;;;;;-0.33;100.00;99817.88;4999308;28;20484;-74
2023/11/30 07:35:56;;;;;;;39.75;18.08;;;;;;;-0.43;100.00;99816.94;5002793;28;20041;-74
2023/11/30 07:38:21;;;;;;;75.43;29.55;;;;;;;-0.34;100.00;99812.91;5010655;28;20037;-73
2023/11/30 07:40:47;;;;;;;55.33;24.88;;;;;;;-0.27;100.00;99822.53;5007461;28;20038;-74
2023/11/30 07:43:12;;;;;;;44.85;20.98;;;;;;;-0.38;100.00;99816.59;5009053;28;20120;-74
2023/11/30 07:45:38;;;;;;;36.33;18.80;;;;;;;-0.44;100.00;99816.09;5008651;28;20120;-74
2023/11/30 07:48:04;;;;;;;43.35;19.67;;;;;;;-0.32;100.00;99811.06;5010539;28;20034;-74
2023/11/30 07:50:30;;;;;;;56.03;24.92;;;;;;;-0.30;100.00;99817.69;5010111;28;20038;-73
2023/11/30 07:52:56;;;;;;;50.90;21.50;;;;;;;-0.35;100.00;99824.84;5014955;28;20078;-75
2023/11/30 07:55:21;;;;;;;47.75;23.08;;;;;;;-0.33;100.00;99825.53;5006075;28;20521;-74
2023/11/30 07:57:48;;;;;;;48.70;20.50;;;;;;;-0.35;100.00;99832.47;5010802;28;20110;-73
2023/11/30 08:00:15;;;;;;;43.55;20.95;;;;;;;-0.14;100.00;99826.78;5004905;28;20124;-74
2023/11/30 08:02:41;;;;;;;46.00;19.52;;;;;;;-0.25;100.00;99828.34;5008737;28;20072;-74
2023/11/30 08:05:07;;;;;;;38.78;18.92;;;;;;;-0.16;100.00;99826.06;4995550;28;20041;-74
2023/11/30 08:07:33;;;;;;;39.25;19.15;;;;;;;-0.09;100.00;99822.97;4993779;28;20060;-74
2023/11/30 08:09:59;;;;;;;38.47;18.38;;;;;;;-0.12;100.00;99830.00;5007291;28;20084;-74
2023/11/30 08:12:24;;;;;;;38.05;18.45;;;;;;;-0.03;100.00;99824.25;5010068;28;20041;-73
2023/11/30 08:14:50;;;;;;;40.10;19.73;;;;;;;0.02;100.00;99829.84;5006123;28;20045;-74
2023/11/30 08:17:16;;;;;;;40.22;19.48;;;;;;;-0.06;100.00;99827.84;5009852;28;20041;-74
2023/11/30 08:19:41;;;;;;;44.80;21.10;;;;;;;0.07;100.00;99827.75;5007762;28;20030;-74
2023/11/30 08:22:07;;;;;;;40.22;19.17;;;;;;;0.04;100.00;99825.44;5006871;28;20595;-74
2023/11/30 08:24:32;;;;;;;38.65;18.50;;;;;;;0.06;100.00;99826.13;5006177;28;20056;-74
2023/11/30 08:26:59;;;;;;;42.45;18.30;;;;;;;0.11;100.00;99830.88;5015422;28;20037;-74
2023/11/30 08:29:25;;;;;;;39.83;18.27;;;;;;;0.06;100.00;99825.31;5012321;28;20032;-74
2023/11/30 08:31:50;;;;;;;41.85;18.48;;;;;;;-0.02;100.00;99836.91;5009588;28;20046;-75
2023/11/30 08:34:16;;;;;;;37.63;18.52;;;;;;;0.05;100.00;99831.34;5011090;28;20049;-74
2023/11/30 08:36:41;;;;;;;40.95;20.02;;;;;;;0.11;100.00;99831.69;5006042;28;20465;-74
2023/11/30 08:39:08;;;;;;;63.97;21.90;;;;;;;-0.04;100.00;99827.72;5008659;28;20030;-74
2023/11/30 08:41:36;;;;;;;41.17;17.40;;;;;;;-0.07;100.00;99836.41;5012240;28;20033;-74
2023/11/30 08:44:03;;;;;;;43.92;20.20;;;;;;;-0.06;100.00;99835.50;5002960;28;20061;-73
2023/11/30 08:46:31;;;;;;;45.05;20.25;;;;;;;-0.05;100.00;99837.09;5002059;28;20053;-74
2023/11/30 08:48:57;;;;;;;42.22;19.08;;;;;;;-0.07;100.00;99827.97;4990105;28;20041;-74
2023/11/30 08:51:22;;;;;;;37.20;17.65;;;;;;;-0.08;100.00;99828.88;5004654;28;20092;-74
2023/11/30 08:53:47;;;;;;;37.88;18.55;;;;;;;-0.06;100.00;99824.47;5006323;28;20030;-73
2023/11/30 08:56:13;;;;;;;39.15;18.00;;;;;;;-0.07;100.00;99830.50;5010509;28;20071;-74
2023/11/30 08:58:38;;;;;;;36.58;16.65;;;;;;;-0.08;100.00;99834.75;5010883;28;20029;-74
2023/11/30 09:01:04;;;;;;;39.55;17.77;;;;;;;-0.07;100.00;99828.75;5008691;28;20042;-73
2023/11/30 09:03:30;;;;;;;37.30;17.83;;;;;;;-0.04;100.00;99830.25;5014257;28;20040;-73
2023/11/30 09:05:55;;;;;;;41.88;18.88;;;;;;;0.02;100.00;99831.56;5012198;28;20042;-73
2023/11/30 09:08:21;;;;;;;42.80;18.40;;;;;;;-0.03;100.00;99840.34;5009064;28;20485;-74
2023/11/30 09:10:47;;;;;;;40.58;18.85;;;;;;;-0.03;100.00;99835.25;4993213;28;20446;-73
2023/11/30 09:13:12;;;;;;;37.55;18.45;;;;;;;0.03;100.00;99840.84;5013700;28;20041;-73
2023/11/30 09:15:38;;;;;;;42.45;19.92;;;;;;;0.04;100.00;99839.91;5012955;28;20042;-74
2023/11/30 09:18:03;;;;;;;42.33;19.48;;;;;;;0.05;100.00;99846.63;5010373;28;20129;-74
2023/11/30 09:20:29;;;;;;;42.47;20.02;;;;;;;0.12;100.00;99840.19;4994918;28;20605;-74
2023/11/30 09:22:55;;;;;;;44.58;20.67;;;;;;;0.11;100.00;99834.25;4995310;28;20060;-73
2023/11/30 09:25:21;;;;;;;44.80;18.70;;;;;;;0.14;100.00;99839.13;5007874;28;20033;-74
2023/11/30 09:27:46;;;;;;;43.75;20.70;;;;;;;0.15;100.00;99839.94;5015278;28;20033;-73
2023/11/30 09:30:12;;;;;;;38.17;18.42;;;;;;;0.19;100.00;99829.41;5009258;28;20511;-74
2023/11/30 09:32:38;;;;;;;39.78;19.10;;;;;;;0.22;100.00;99833.47;5009337;28;20041;-74
2023/11/30 09:35:04;;;;;;;44.65;19.52;;;;;;;0.29;100.00;99831.28;5015488;28;20058;-74
2023/11/30 09:37:30;;;;;;;46.13;20.23;;;;;;;0.43;100.00;99827.69;5010973;28;20030;-74
2023/11/30 09:39:55;;;;;;;39.13;19.20;;;;;;;0.48;100.00;99831.53;5006070;28;20096;-73
2023/11/30 09:42:24;;;;;;;49.55;21.15;;;;;;;0.67;100.00;99837.81;5011494;28;20401;-73
2023/11/30 09:44:51;;;;;;;40.78;18.58;;;;;;;0.60;100.00;99822.13;5016422;28;20073;-73
2023/11/30 09:47:17;;;;;;;36.35;19.08;;;;;;;0.69;100.00;99818.09;5003592;28;20499;-73
2023/11/30 09:49:44;;;;;;;43.67;20.25;;;;;;;0.71;100.00;99817.03;5012959;28;20049;-73
2023/11/30 09:52:10;;;;;;;43.35;19.35;;;;;;;0.85;100.00;99812.63;5008690;28;20112;-74
2023/11/30 09:54:36;;;;;;;41.55;18.83;;;;;;;0.77;100.00;99814.03;5014827;28;20041;-73
2023/11/30 09:57:02;;;;;;;40.90;20.30;;;;;;;0.81;100.00;99816.34;5016337;28;20033;-74
2023/11/30 09:59:28;;;;;;;43.58;20.67;;;;;;;0.89;100.00;99819.13;5016596;28;20033;-73
2023/11/30 10:01:58;;;;;;;40.35;19.15;;;;;;;0.89;100.00;99822.50;5007117;28;20039;-73
2023/11/30 10:04:28;;;;;;;42.92;20.90;;;;;;;0.92;100.00;99824.81;5010557;28;20034;-73
2023/11/30 10:06:55;;;;;;;51.67;21.75;;;;;;;0.93;100.00;99821.31;5015294;28;20042;-73
2023/11/30 10:09:21;;;;;;;46.17;21.02;;;;;;;1.17;100.00;99818.63;5011981;28;20046;-73
2023/11/30 10:11:46;;;;;;;48.50;22.02;;;;;;;1.16;100.00;99824.66;5009751;28;20052;-74
2023/11/30 10:14:12;;;;;;;48.47;21.80;;;;;;;1.30;100.00;99821.03;5013526;28;20504;-72
2023/11/30 10:16:37;;;;;;;49.08;22.10;;;;;;;1.47;100.00;99818.88;5015472;28;20037;-73
2023/11/30 10:19:03;;;;;;;43.08;20.40;;;;;;;1.58;100.00;99818.03;5010736;28;20033;-73
2023/11/30 10:21:29;;;;;;;42.28;20.92;;;;;;;1.57;100.00;99826.66;5007642;28;20433;-73
2023/11/30 10:23:56;;;;;;;41.42;20.13;;;;;;;1.71;100.00;99814.41;4997922;28;20030;-73
2023/11/30 10:26:24;;;;;;;45.22;20.27;;;;;;;1.68;100.00;99818.94;5012144;28;20031;-73
2023/11/30 10:28:53;;;;;;;40.15;18.27;;;;;;;1.76;100.00;99816.59;5008331;28;20493;-73
2023/11/30 10:31:21;;;;;;;45.47;20.95;;;;;;;1.69;100.00;99803.47;5011798;28;20038;-73
2023/11/30 10:33:53;;;;;;;43.63;19.40;;;;;;;1.71;100.00;99811.84;5014851;28;20518;-73
2023/11/30 10:36:19;;;;;;;40.40;20.95;;;;;;;1.70;100.00;99810.22;5010448;28;20042;-73
2023/11/30 10:38:47;;;;;;;41.97;20.95;;;;;;;1.69;100.00;99808.59;5013019;28;20057;-73
2023/11/30 10:41:22;;;;;;;63.03;26.10;;;;;;;1.68;100.00;99809.53;5006160;28;21062;-73
2023/11/30 10:43:51;;;;;;;45.03;19.60;;;;;;;1.80;100.00;99810.28;5016567;28;20128;-73
2023/11/30 10:46:18;;;;;;;39.45;19.50;;;;;;;1.83;100.00;99809.22;5008797;28;20077;-73
2023/11/30 10:48:43;;;;;;;41.95;18.83;;;;;;;1.78;100.00;99807.03;5008982;28;20029;-73
2023/11/30 10:51:13;;;;;;;44.42;20.08;;;;;;;1.85;100.00;99807.38;5007195;28;20404;-73
2023/11/30 10:54:04;;;;;;;41.05;19.35;;;;;;;1.95;100.00;99803.13;4994725;28;20026;-72
2023/11/30 10:56:32;;;;;;;44.45;18.75;;;;;;;2.08;100.00;99805.50;5013750;28;20116;-73
2023/11/30 10:59:00;;;;;;;43.58;19.48;;;;;;;2.06;100.00;99805.63;5009921;28;22991;-72
2023/11/30 11:01:28;;;;;;;39.88;19.15;;;;;;;2.04;100.00;99804.13;5011191;28;20030;-73
2023/11/30 11:03:57;;;;;;;45.30;19.98;;;;;;;1.98;100.00;99810.56;5004505;28;20029;-73
2023/11/30 11:06:26;;;;;;;39.30;19.33;;;;;;;2.09;100.00;99807.94;5012218;28;20034;-73
2023/11/30 11:09:15;;;;;;;42.50;20.42;;;;;;;2.12;100.00;99807.66;5026662;28;20416;-73